Latest Weather Observations for Wattamolla

IDN60801

Issued at 8:05 pm EDT Friday 28 November 2014 (issued every 30 minutes, with the page automatically refreshed every 10 minutes)

About weather observations | Map of weather stations | Latest weather observations for NSW | Other Formats
Station Details ID: 066208 Name: WATTAMOLLA AWS Lat: -34.14 Lon: 151.12 Height: 44.0 m
Data from the previous 72 hours. | See also: Recent months for locations in New South Wales
Date/Time
EDT
Temp
°C
App
Temp
°C
Dew
Point
Rel
Hum
%
Delta-T
°C
Wind Press
QNH
hPa
Press
MSL
hPa
Rain
since 9 am
mm
Dir
 
Spd
km/h
Gust
km/h
Spd
kts
Gust
kts
28/08:00pm - - - - - NNE 17 26 9 14 - - -
28/07:30pm - - - - - NNE 17 26 9 14 - - -
28/07:00pm - - - - - NE 20 30 11 16 - - -
28/06:30pm - - - - - NE 19 28 10 15 - - -
28/06:00pm - - - - - NE 19 28 10 15 - - -
28/05:30pm - - - - - NE 19 26 10 14 - - -
28/05:00pm - - - - - ENE 17 26 9 14 - - -
28/04:30pm - - - - - ENE 20 30 11 16 - - -
28/04:00pm - - - - - ENE 19 26 10 14 - - -
28/03:30pm - - - - - E 15 24 8 13 - - -
28/03:00pm - - - - - E 17 26 9 14 - - -
28/02:30pm - - - - - E 15 26 8 14 - - -
28/02:00pm - - - - - E 17 26 9 14 - - -
28/01:30pm - - - - - E 15 22 8 12 - - -
28/01:00pm - - - - - ESE 13 19 7 10 - - -
28/12:30pm - - - - - ESE 13 17 7 9 - - -
28/12:00pm - - - - - SE 13 19 7 10 - - -
28/11:30am - - - - - SE 19 24 10 13 - - -
28/11:00am - - - - - SE 19 24 10 13 - - -
28/10:30am - - - - - SSE 19 22 10 12 - - -
28/10:00am - - - - - SSE 15 17 8 9 - - -
28/09:30am - - - - - SSE 11 15 6 8 - - -
28/09:00am - - - - - SSE 11 15 6 8 - - -
28/08:30am - - - - - S 13 17 7 9 - - -
28/08:00am - - - - - S 13 17 7 9 - - -
28/07:30am - - - - - SSE 17 20 9 11 - - -
28/07:00am - - - - - SSE 19 26 10 14 - - -
28/06:30am - - - - - S 22 28 12 15 - - -
28/06:00am - - - - - SSE 19 26 10 14 - - -
28/05:30am - - - - - S 20 28 11 15 - - -
28/05:00am - - - - - SSE 24 32 13 17 - - -
28/04:30am - - - - - S 22 26 12 14 - - -
28/04:00am - - - - - SSE 22 32 12 17 - - -
28/03:30am - - - - - S 22 32 12 17 - - -
28/03:00am - - - - - SSE 24 28 13 15 - - -
28/02:30am - - - - - SSE 22 32 12 17 - - -
28/02:00am - - - - - S 19 26 10 14 - - -
28/01:30am - - - - - SSE 24 30 13 16 - - -
28/01:00am - - - - - SSE 24 30 13 16 - - -
28/12:30am - - - - - SSE 22 28 12 15 - - -
28/12:00am - - - - - SSE 28 32 15 17 - - -
 
Date/Time
EDT
Temp
°C
App
Temp
°C
Dew
Point
Rel
Hum
%
Delta-T
°C
Wind Press
QNH
hPa
Press
MSL
hPa
Rain
since 9 am
mm
Dir
 
Spd
km/h
Gust
km/h
Spd
kts
Gust
kts
27/11:30pm - - - - - SSE 22 28 12 15 - - -
27/10:30pm - - - - - S 22 28 12 15 - - -
27/10:00pm - - - - - S 26 30 14 16 - - -
27/09:30pm - - - - - SSE 28 33 15 18 - - -
27/09:00pm - - - - - SSE 28 33 15 18 - - -
27/08:30pm - - - - - SSE 24 28 13 15 - - -
27/08:00pm - - - - - S 24 30 13 16 - - -
27/07:30pm - - - - - S 26 32 14 17 - - -
27/07:00pm - - - - - S 24 33 13 18 - - -
27/06:30pm - - - - - S 24 32 13 17 - - -
27/06:00pm - - - - - SSE 24 35 13 19 - - -
27/05:30pm - - - - - S 24 32 13 17 - - -
27/05:00pm - - - - - SSE 20 30 11 16 - - -
27/04:30pm - - - - - SSE 20 28 11 15 - - -
27/04:00pm - - - - - S 28 33 15 18 - - -
27/03:30pm - - - - - S 32 39 17 21 - - -
27/03:00pm - - - - - S 26 35 14 19 - - -
27/02:30pm - - - - - SSE 24 33 13 18 - - -
27/02:00pm - - - - - SSE 28 37 15 20 - - -
27/01:30pm - - - - - S 28 41 15 22 - - -
27/01:00pm - - - - - SSE 32 41 17 22 - - -
27/12:30pm - - - - - S 33 44 18 24 - - -
27/12:00pm - - - - - SSE 32 44 17 24 - - -
27/11:30am - - - - - S 32 41 17 22 - - -
27/11:00am - - - - - S 30 37 16 20 - - -
27/10:30am - - - - - SSE 32 43 17 23 - - -
27/10:00am - - - - - S 30 41 16 22 - - -
27/09:30am - - - - - S 41 50 22 27 - - -
27/09:00am - - - - - S 37 48 20 26 - - -
27/08:30am - - - - - S 39 56 21 30 - - -
27/08:00am - - - - - S 39 50 21 27 - - -
27/07:30am - - - - - - - - - - - - -
27/07:14am - - - - - S 35 54 19 29 - - -
27/07:00am - - - - - SSE 41 54 22 29 - - -
27/06:30am - - - - - SSE 44 59 24 32 - - -
27/06:00am - - - - - S 50 61 27 33 - - -
27/05:30am - - - - - SSE 52 61 28 33 - - -
27/05:00am - - - - - SSE 54 63 29 34 - - -
27/04:30am - - - - - SSE 52 59 28 32 - - -
27/04:00am - - - - - SSE 52 59 28 32 - - -
27/03:30am - - - - - SSE 52 61 28 33 - - -
27/03:00am - - - - - SSE 41 48 22 26 - - -
27/02:39am - - - - - SSE 37 44 20 24 - - -
27/02:30am - - - - - SSE 9 15 5 8 - - -
27/02:00am - - - - - S 7 9 4 5 - - -
27/01:30am - - - - - ESE 7 11 4 6 - - -
27/01:00am - - - - - SE 7 11 4 6 - - -
27/12:30am - - - - - SE 6 11 3 6 - - -
27/12:00am - - - - - E 7 11 4 6 - - -
 
Date/Time
EDT
Temp
°C
App
Temp
°C
Dew
Point
Rel
Hum
%
Delta-T
°C
Wind Press
QNH
hPa
Press
MSL
hPa
Rain
since 9 am
mm
Dir
 
Spd
km/h
Gust
km/h
Spd
kts
Gust
kts
26/11:30pm - - - - - ENE 9 11 5 6 - - -
26/11:00pm - - - - - ESE 9 13 5 7 - - -
26/10:30pm - - - - - ENE 13 19 7 10 - - -
26/10:00pm - - - - - ENE 13 19 7 10 - - -
26/09:30pm - - - - - ENE 15 20 8 11 - - -
26/09:00pm - - - - - ENE 17 22 9 12 - - -
26/08:30pm - - - - - NE 20 28 11 15 - - -
26/08:00pm - - - - - NE 17 26 9 14 - - -
26/07:30pm - - - - - NE 17 30 9 16 - - -
26/07:00pm - - - - - NE 20 32 11 17 - - -
26/06:30pm - - - - - NE 20 30 11 16 - - -
26/06:00pm - - - - - NE 22 35 12 19 - - -
26/05:30pm - - - - - NE 22 33 12 18 - - -
26/05:00pm - - - - - NE 22 35 12 19 - - -
26/04:30pm - - - - - NE 24 33 13 18 - - -
26/04:00pm - - - - - NE 22 33 12 18 - - -
26/03:30pm - - - - - NE 26 35 14 19 - - -
26/03:00pm - - - - - NE 26 37 14 20 - - -
26/02:30pm - - - - - NE 24 33 13 18 - - -
26/02:00pm - - - - - NE 22 30 12 16 - - -
26/01:30pm - - - - - NE 24 33 13 18 - - -
26/01:00pm - - - - - NE 24 33 13 18 - - -
26/12:30pm - - - - - NE 22 32 12 17 - - -
26/12:00pm - - - - - NE 22 32 12 17 - - -
26/11:30am - - - - - NE 22 33 12 18 - - -
26/11:00am - - - - - NE 22 30 12 16 - - -
26/10:30am - - - - - NE 24 33 13 18 - - -
26/10:00am - - - - - NE 24 32 13 17 - - -
26/09:30am - - - - - NE 17 26 9 14 - - -
26/09:00am - - - - - NNE 15 22 8 12 - - -
26/08:30am - - - - - NNE 13 22 7 12 - - -
26/08:00am - - - - - NNE 15 19 8 10 - - -
26/07:30am - - - - - NNE 15 19 8 10 - - -
26/07:00am - - - - - NNE 13 19 7 10 - - -
26/06:30am - - - - - N 13 19 7 10 - - -
26/06:00am - - - - - NNE 19 26 10 14 - - -
26/05:30am - - - - - NNE 19 26 10 14 - - -
26/05:00am - - - - - NNE 19 28 10 15 - - -
26/04:30am - - - - - NE 20 32 11 17 - - -
26/04:00am - - - - - NE 17 22 9 12 - - -
26/03:30am - - - - - NE 17 24 9 13 - - -
26/03:00am - - - - - ENE 15 19 8 10 - - -
26/02:30am - - - - - E 15 22 8 12 - - -
26/02:00am - - - - - ENE 17 24 9 13 - - -
26/01:30am - - - - - E 15 22 8 12 - - -
26/01:00am - - - - - E 17 24 9 13 - - -
26/12:30am - - - - - ESE 13 19 7 10 - - -
26/12:00am - - - - - ESE 13 22 7 12 - - -
 
Date/Time
EDT
Temp
°C
App
Temp
°C
Dew
Point
Rel
Hum
%
Delta-T
°C
Wind Press
QNH
hPa
Press
MSL
hPa
Rain
since 9 am
mm
Dir
 
Spd
km/h
Gust
km/h
Spd
kts
Gust
kts
25/11:30pm - - - - - E 11 19 6 10 - - -
25/11:00pm - - - - - ESE 13 19 7 10 - - -
25/10:30pm - - - - - SE 13 20 7 11 - - -
25/10:00pm - - - - - SE 19 28 10 15 - - -
25/09:30pm - - - - - SE 17 28 9 15 - - -
25/09:00pm - - - - - SE 20 28 11 15 - - -
25/08:30pm - - - - - SE 20 30 11 16 - - -

Other Formats:

Comma delimited format used in spreadsheet applications
http://www.bom.gov.au/fwo/IDN60801/IDN60801.95752.axf

JavaScript Object Notation format (JSON) in row-major order
http://www.bom.gov.au/fwo/IDN60801/IDN60801.95752.json